GRI weather

Central Nebraska Regional Airport
Grand Island, Nebraska, United States

Public forecast

Using degrees Fahrenheit for public forecast. Weather courtesy of forecast.io.

METAR (pilot weather report)

Retrieved 2019/07/21 21:53 UTC (1 hour ago):

KGRI 212153Z 36011KT 10SM FEW021 SCT026 25/19 A3012 RMK AO2 SLP190 T02500194 $

TAF (pilot weather forecast)

Retrieved 2019/07/21 18:48 UTC (4 hours ago):

TAF KGRI 211745Z 2118/2218 32011KT P6SM -SHRA FEW007 SCT025 OVC035 FM212100 01011KT P6SM VCSH SCT025 OVC035 FM220200 03009KT P6SM BKN080 FM220800 36007KT P6SM SCT100